sensor_id;sensor_type;location;lat;lon;timestamp;P1;durP1;ratioP1;P2;durP2;ratioP2
68680;SDS011;55836;49.858;6.756;2023-04-30T00:00:15;34.73;;;23.40;;
68680;SDS011;55836;49.858;6.756;2023-04-30T00:02:41;36.23;;;23.67;;
68680;SDS011;55836;49.858;6.756;2023-04-30T00:05:07;42.97;;;25.87;;
68680;SDS011;55836;49.858;6.756;2023-04-30T00:07:33;39.13;;;25.03;;
68680;SDS011;55836;49.858;6.756;2023-04-30T00:09:59;38.07;;;23.00;;
68680;SDS011;55836;49.858;6.756;2023-04-30T00:12:25;36.40;;;24.67;;
68680;SDS011;55836;49.858;6.756;2023-04-30T00:14:51;39.90;;;24.43;;
68680;SDS011;55836;49.858;6.756;2023-04-30T00:17:20;39.47;;;23.80;;
68680;SDS011;55836;49.858;6.756;2023-04-30T00:19:46;43.40;;;25.57;;
68680;SDS011;55836;49.858;6.756;2023-04-30T00:22:12;44.37;;;27.77;;
68680;SDS011;55836;49.858;6.756;2023-04-30T00:24:38;47.57;;;29.70;;
68680;SDS011;55836;49.858;6.756;2023-04-30T00:27:04;49.93;;;30.20;;
68680;SDS011;55836;49.858;6.756;2023-04-30T00:29:30;50.63;;;31.10;;
68680;SDS011;55836;49.858;6.756;2023-04-30T00:31:56;41.17;;;25.90;;
68680;SDS011;55836;49.858;6.756;2023-04-30T00:34:22;50.30;;;28.30;;
68680;SDS011;55836;49.858;6.756;2023-04-30T00:36:48;46.67;;;29.23;;
68680;SDS011;55836;49.858;6.756;2023-04-30T00:39:14;45.23;;;29.20;;
68680;SDS011;55836;49.858;6.756;2023-04-30T00:41:40;43.40;;;26.40;;
68680;SDS011;55836;49.858;6.756;2023-04-30T00:44:07;40.83;;;25.83;;
68680;SDS011;55836;49.858;6.756;2023-04-30T00:46:33;44.57;;;27.83;;
68680;SDS011;55836;49.858;6.756;2023-04-30T00:48:59;40.93;;;24.97;;
68680;SDS011;55836;49.858;6.756;2023-04-30T00:51:28;43.90;;;25.73;;
68680;SDS011;55836;49.858;6.756;2023-04-30T00:53:55;44.90;;;26.23;;
68680;SDS011;55836;49.858;6.756;2023-04-30T00:56:21;48.00;;;26.90;;
68680;SDS011;55836;49.858;6.756;2023-04-30T00:58:47;52.77;;;29.67;;
68680;SDS011;55836;49.858;6.756;2023-04-30T01:01:15;46.27;;;28.00;;
68680;SDS011;55836;49.858;6.756;2023-04-30T01:03:42;47.03;;;28.17;;
68680;SDS011;55836;49.858;6.756;2023-04-30T01:06:08;50.43;;;29.00;;
68680;SDS011;55836;49.858;6.756;2023-04-30T01:08:34;52.73;;;29.53;;
68680;SDS011;55836;49.858;6.756;2023-04-30T01:11:10;50.63;;;28.43;;
68680;SDS011;55836;49.858;6.756;2023-04-30T01:13:44;49.63;;;30.60;;
68680;SDS011;55836;49.858;6.756;2023-04-30T01:16:18;47.03;;;27.93;;
68680;SDS011;55836;49.858;6.756;2023-04-30T01:18:50;45.00;;;26.73;;
68680;SDS011;55836;49.858;6.756;2023-04-30T01:21:17;44.13;;;26.50;;
68680;SDS011;55836;49.858;6.756;2023-04-30T01:28:39;50.87;;;29.33;;
68680;SDS011;55836;49.858;6.756;2023-04-30T01:31:14;55.20;;;33.30;;
68680;SDS011;55836;49.858;6.756;2023-04-30T01:33:40;51.97;;;29.23;;
68680;SDS011;55836;49.858;6.756;2023-04-30T01:41:33;41.20;;;25.13;;
68680;SDS011;55836;49.858;6.756;2023-04-30T01:46:29;50.73;;;29.17;;
68680;SDS011;55836;49.858;6.756;2023-04-30T01:49:14;49.67;;;30.00;;
68680;SDS011;55836;49.858;6.756;2023-04-30T01:51:44;39.13;;;24.23;;
68680;SDS011;55836;49.858;6.756;2023-04-30T01:56:41;44.80;;;26.93;;
68680;SDS011;55836;49.858;6.756;2023-04-30T01:59:09;49.63;;;29.80;;
68680;SDS011;55836;49.858;6.756;2023-04-30T02:01:36;52.03;;;29.73;;
68680;SDS011;55836;49.858;6.756;2023-04-30T02:04:02;48.33;;;28.47;;
68680;SDS011;55836;49.858;6.756;2023-04-30T02:06:28;51.97;;;30.03;;
68680;SDS011;55836;49.858;6.756;2023-04-30T02:08:55;51.83;;;30.37;;
68680;SDS011;55836;49.858;6.756;2023-04-30T02:11:26;47.43;;;29.67;;
68680;SDS011;55836;49.858;6.756;2023-04-30T02:13:52;49.40;;;28.80;;
68680;SDS011;55836;49.858;6.756;2023-04-30T02:16:18;49.17;;;30.03;;
68680;SDS011;55836;49.858;6.756;2023-04-30T02:18:44;38.07;;;25.00;;
68680;SDS011;55836;49.858;6.756;2023-04-30T02:21:10;40.97;;;25.27;;
68680;SDS011;55836;49.858;6.756;2023-04-30T02:23:36;50.90;;;27.33;;
68680;SDS011;55836;49.858;6.756;2023-04-30T02:26:02;43.27;;;27.73;;
68680;SDS011;55836;49.858;6.756;2023-04-30T02:28:28;45.60;;;27.67;;
68680;SDS011;55836;49.858;6.756;2023-04-30T02:30:54;45.27;;;28.20;;
68680;SDS011;55836;49.858;6.756;2023-04-30T02:33:20;42.67;;;26.97;;
68680;SDS011;55836;49.858;6.756;2023-04-30T02:35:46;42.17;;;24.77;;
68680;SDS011;55836;49.858;6.756;2023-04-30T02:38:12;41.87;;;23.20;;
68680;SDS011;55836;49.858;6.756;2023-04-30T02:40:39;39.47;;;24.53;;
68680;SDS011;55836;49.858;6.756;2023-04-30T02:43:06;37.17;;;24.13;;
68680;SDS011;55836;49.858;6.756;2023-04-30T02:45:32;37.90;;;24.73;;
68680;SDS011;55836;49.858;6.756;2023-04-30T02:47:58;37.07;;;24.13;;
68680;SDS011;55836;49.858;6.756;2023-04-30T02:50:25;42.33;;;24.90;;
68680;SDS011;55836;49.858;6.756;2023-04-30T02:52:51;40.77;;;23.97;;
68680;SDS011;55836;49.858;6.756;2023-04-30T02:55:20;37.70;;;25.27;;
68680;SDS011;55836;49.858;6.756;2023-04-30T02:57:45;37.83;;;25.20;;
68680;SDS011;55836;49.858;6.756;2023-04-30T03:00:12;50.57;;;28.07;;
68680;SDS011;55836;49.858;6.756;2023-04-30T03:02:38;53.33;;;30.97;;
68680;SDS011;55836;49.858;6.756;2023-04-30T03:05:05;53.63;;;31.20;;
68680;SDS011;55836;49.858;6.756;2023-04-30T03:07:31;52.40;;;31.47;;
68680;SDS011;55836;49.858;6.756;2023-04-30T03:09:57;48.80;;;30.73;;
68680;SDS011;55836;49.858;6.756;2023-04-30T03:12:23;57.73;;;33.30;;
68680;SDS011;55836;49.858;6.756;2023-04-30T03:14:49;50.67;;;31.20;;
68680;SDS011;55836;49.858;6.756;2023-04-30T03:17:16;52.37;;;31.23;;
68680;SDS011;55836;49.858;6.756;2023-04-30T03:19:42;51.10;;;30.43;;
68680;SDS011;55836;49.858;6.756;2023-04-30T03:22:09;48.37;;;30.50;;
68680;SDS011;55836;49.858;6.756;2023-04-30T03:24:35;53.17;;;31.43;;
68680;SDS011;55836;49.858;6.756;2023-04-30T03:27:01;51.00;;;31.93;;
68680;SDS011;55836;49.858;6.756;2023-04-30T03:29:27;55.90;;;32.97;;
68680;SDS011;55836;49.858;6.756;2023-04-30T03:31:53;54.27;;;33.87;;
68680;SDS011;55836;49.858;6.756;2023-04-30T03:34:19;61.23;;;35.20;;
68680;SDS011;55836;49.858;6.756;2023-04-30T03:36:45;52.40;;;32.90;;
68680;SDS011;55836;49.858;6.756;2023-04-30T03:39:11;54.43;;;32.90;;
68680;SDS011;55836;49.858;6.756;2023-04-30T03:41:37;54.50;;;32.50;;
68680;SDS011;55836;49.858;6.756;2023-04-30T03:44:03;49.23;;;31.53;;
68680;SDS011;55836;49.858;6.756;2023-04-30T03:46:30;52.43;;;31.90;;
68680;SDS011;55836;49.858;6.756;2023-04-30T03:48:56;52.47;;;31.17;;
68680;SDS011;55836;49.858;6.756;2023-04-30T03:51:22;48.60;;;31.13;;
68680;SDS011;55836;49.858;6.756;2023-04-30T03:53:48;51.37;;;30.10;;
68680;SDS011;55836;49.858;6.756;2023-04-30T03:56:14;54.73;;;31.43;;
68680;SDS011;55836;49.858;6.756;2023-04-30T03:58:40;46.83;;;29.00;;
68680;SDS011;55836;49.858;6.756;2023-04-30T04:01:06;50.17;;;32.33;;
68680;SDS011;55836;49.858;6.756;2023-04-30T04:03:33;54.37;;;32.03;;
68680;SDS011;55836;49.858;6.756;2023-04-30T04:05:59;52.80;;;31.63;;
68680;SDS011;55836;49.858;6.756;2023-04-30T04:08:25;55.47;;;34.33;;
68680;SDS011;55836;49.858;6.756;2023-04-30T04:10:51;45.13;;;30.97;;
68680;SDS011;55836;49.858;6.756;2023-04-30T04:13:17;51.13;;;31.83;;
68680;SDS011;55836;49.858;6.756;2023-04-30T04:15:43;59.03;;;34.90;;
68680;SDS011;55836;49.858;6.756;2023-04-30T04:18:09;54.33;;;32.90;;
68680;SDS011;55836;49.858;6.756;2023-04-30T04:20:35;48.97;;;30.57;;
68680;SDS011;55836;49.858;6.756;2023-04-30T04:23:01;53.53;;;34.37;;
68680;SDS011;55836;49.858;6.756;2023-04-30T04:25:27;55.23;;;32.33;;
68680;SDS011;55836;49.858;6.756;2023-04-30T04:27:53;62.07;;;34.70;;
68680;SDS011;55836;49.858;6.756;2023-04-30T04:30:19;58.63;;;33.80;;
68680;SDS011;55836;49.858;6.756;2023-04-30T04:32:45;58.40;;;34.67;;
68680;SDS011;55836;49.858;6.756;2023-04-30T04:35:14;53.73;;;33.83;;
68680;SDS011;55836;49.858;6.756;2023-04-30T04:37:41;56.00;;;34.73;;
68680;SDS011;55836;49.858;6.756;2023-04-30T04:40:07;54.53;;;35.83;;
68680;SDS011;55836;49.858;6.756;2023-04-30T04:42:35;55.13;;;34.27;;
68680;SDS011;55836;49.858;6.756;2023-04-30T04:45:02;56.93;;;33.10;;
68680;SDS011;55836;49.858;6.756;2023-04-30T04:47:28;49.73;;;32.30;;
68680;SDS011;55836;49.858;6.756;2023-04-30T04:49:55;54.03;;;34.00;;
68680;SDS011;55836;49.858;6.756;2023-04-30T04:52:21;52.50;;;33.03;;
68680;SDS011;55836;49.858;6.756;2023-04-30T04:54:47;60.57;;;36.97;;
68680;SDS011;55836;49.858;6.756;2023-04-30T04:57:13;55.77;;;35.33;;
68680;SDS011;55836;49.858;6.756;2023-04-30T04:59:39;54.90;;;36.07;;
68680;SDS011;55836;49.858;6.756;2023-04-30T05:02:05;51.30;;;33.67;;
68680;SDS011;55836;49.858;6.756;2023-04-30T05:04:31;61.23;;;36.70;;
68680;SDS011;55836;49.858;6.756;2023-04-30T05:06:57;54.03;;;34.23;;
68680;SDS011;55836;49.858;6.756;2023-04-30T05:09:23;57.03;;;35.17;;
68680;SDS011;55836;49.858;6.756;2023-04-30T05:11:49;52.50;;;33.10;;
68680;SDS011;55836;49.858;6.756;2023-04-30T05:14:15;50.70;;;34.87;;
68680;SDS011;55836;49.858;6.756;2023-04-30T05:16:41;57.40;;;35.60;;
68680;SDS011;55836;49.858;6.756;2023-04-30T05:19:07;58.60;;;36.00;;
68680;SDS011;55836;49.858;6.756;2023-04-30T05:21:33;53.27;;;35.43;;
68680;SDS011;55836;49.858;6.756;2023-04-30T05:24:00;51.73;;;34.47;;
68680;SDS011;55836;49.858;6.756;2023-04-30T05:26:26;50.73;;;34.40;;
68680;SDS011;55836;49.858;6.756;2023-04-30T05:28:52;54.87;;;34.37;;
68680;SDS011;55836;49.858;6.756;2023-04-30T05:31:18;55.50;;;35.73;;
68680;SDS011;55836;49.858;6.756;2023-04-30T05:33:44;54.57;;;34.17;;
68680;SDS011;55836;49.858;6.756;2023-04-30T05:36:10;55.63;;;35.30;;
68680;SDS011;55836;49.858;6.756;2023-04-30T05:38:36;50.43;;;32.97;;
68680;SDS011;55836;49.858;6.756;2023-04-30T05:41:02;52.37;;;33.93;;
68680;SDS011;55836;49.858;6.756;2023-04-30T05:43:28;53.97;;;34.43;;
68680;SDS011;55836;49.858;6.756;2023-04-30T05:45:54;50.97;;;34.70;;
68680;SDS011;55836;49.858;6.756;2023-04-30T05:48:20;54.10;;;34.30;;
68680;SDS011;55836;49.858;6.756;2023-04-30T05:50:46;49.07;;;32.77;;
68680;SDS011;55836;49.858;6.756;2023-04-30T05:53:12;56.53;;;35.20;;
68680;SDS011;55836;49.858;6.756;2023-04-30T05:55:38;52.70;;;33.23;;
68680;SDS011;55836;49.858;6.756;2023-04-30T05:58:04;51.90;;;35.33;;
68680;SDS011;55836;49.858;6.756;2023-04-30T06:00:30;51.40;;;34.43;;
68680;SDS011;55836;49.858;6.756;2023-04-30T06:02:56;49.73;;;32.70;;
68680;SDS011;55836;49.858;6.756;2023-04-30T06:05:22;48.53;;;33.13;;
68680;SDS011;55836;49.858;6.756;2023-04-30T06:07:48;42.33;;;29.93;;
68680;SDS011;55836;49.858;6.756;2023-04-30T06:10:14;43.50;;;30.83;;
68680;SDS011;55836;49.858;6.756;2023-04-30T06:12:40;43.20;;;30.87;;
68680;SDS011;55836;49.858;6.756;2023-04-30T06:15:07;46.77;;;31.10;;
68680;SDS011;55836;49.858;6.756;2023-04-30T06:17:33;40.67;;;28.47;;
68680;SDS011;55836;49.858;6.756;2023-04-30T06:19:59;39.10;;;27.73;;
68680;SDS011;55836;49.858;6.756;2023-04-30T06:22:30;42.80;;;28.97;;
68680;SDS011;55836;49.858;6.756;2023-04-30T06:24:56;46.03;;;30.27;;
68680;SDS011;55836;49.858;6.756;2023-04-30T06:27:23;36.43;;;27.30;;
68680;SDS011;55836;49.858;6.756;2023-04-30T06:29:52;39.23;;;27.90;;
68680;SDS011;55836;49.858;6.756;2023-04-30T06:32:18;41.87;;;27.87;;
68680;SDS011;55836;49.858;6.756;2023-04-30T06:34:44;35.83;;;26.50;;
68680;SDS011;55836;49.858;6.756;2023-04-30T06:37:10;38.60;;;25.97;;
68680;SDS011;55836;49.858;6.756;2023-04-30T06:39:36;38.97;;;26.07;;
68680;SDS011;55836;49.858;6.756;2023-04-30T06:42:02;37.90;;;27.17;;
68680;SDS011;55836;49.858;6.756;2023-04-30T06:44:28;36.30;;;26.17;;
68680;SDS011;55836;49.858;6.756;2023-04-30T06:46:54;34.10;;;24.47;;
68680;SDS011;55836;49.858;6.756;2023-04-30T06:49:20;35.37;;;25.63;;
68680;SDS011;55836;49.858;6.756;2023-04-30T06:51:46;34.83;;;25.20;;
68680;SDS011;55836;49.858;6.756;2023-04-30T06:54:12;31.03;;;23.60;;
68680;SDS011;55836;49.858;6.756;2023-04-30T06:56:38;35.37;;;24.10;;
68680;SDS011;55836;49.858;6.756;2023-04-30T06:59:05;33.00;;;24.77;;
68680;SDS011;55836;49.858;6.756;2023-04-30T07:01:31;35.10;;;24.70;;
68680;SDS011;55836;49.858;6.756;2023-04-30T07:03:57;32.20;;;23.37;;
68680;SDS011;55836;49.858;6.756;2023-04-30T07:06:24;34.43;;;23.80;;
68680;SDS011;55836;49.858;6.756;2023-04-30T07:08:50;32.07;;;22.93;;
68680;SDS011;55836;49.858;6.756;2023-04-30T07:11:16;32.03;;;22.97;;
68680;SDS011;55836;49.858;6.756;2023-04-30T07:13:42;31.37;;;21.97;;
68680;SDS011;55836;49.858;6.756;2023-04-30T07:16:08;30.70;;;22.23;;
68680;SDS011;55836;49.858;6.756;2023-04-30T07:18:34;35.27;;;22.13;;
68680;SDS011;55836;49.858;6.756;2023-04-30T07:21:01;28.00;;;21.10;;
68680;SDS011;55836;49.858;6.756;2023-04-30T07:23:27;28.50;;;20.83;;
68680;SDS011;55836;49.858;6.756;2023-04-30T07:25:53;24.70;;;20.20;;
68680;SDS011;55836;49.858;6.756;2023-04-30T07:28:19;28.43;;;17.97;;
68680;SDS011;55836;49.858;6.756;2023-04-30T07:30:45;24.97;;;18.70;;
68680;SDS011;55836;49.858;6.756;2023-04-30T07:33:12;23.13;;;17.53;;
68680;SDS011;55836;49.858;6.756;2023-04-30T07:35:37;24.87;;;16.40;;
68680;SDS011;55836;49.858;6.756;2023-04-30T07:38:03;19.33;;;14.83;;
68680;SDS011;55836;49.858;6.756;2023-04-30T07:40:30;23.17;;;16.70;;
68680;SDS011;55836;49.858;6.756;2023-04-30T07:42:56;19.03;;;15.80;;
68680;SDS011;55836;49.858;6.756;2023-04-30T07:45:22;19.37;;;13.97;;
68680;SDS011;55836;49.858;6.756;2023-04-30T07:47:48;18.17;;;13.80;;
68680;SDS011;55836;49.858;6.756;2023-04-30T07:50:14;18.60;;;14.90;;
68680;SDS011;55836;49.858;6.756;2023-04-30T07:52:41;21.17;;;13.83;;
68680;SDS011;55836;49.858;6.756;2023-04-30T07:55:07;19.20;;;13.83;;
68680;SDS011;55836;49.858;6.756;2023-04-30T07:57:33;17.80;;;13.17;;
68680;SDS011;55836;49.858;6.756;2023-04-30T07:59:59;18.90;;;13.63;;
68680;SDS011;55836;49.858;6.756;2023-04-30T08:02:25;17.27;;;13.37;;
68680;SDS011;55836;49.858;6.756;2023-04-30T08:04:51;17.77;;;13.17;;
68680;SDS011;55836;49.858;6.756;2023-04-30T08:07:17;16.43;;;11.83;;
68680;SDS011;55836;49.858;6.756;2023-04-30T08:09:45;14.77;;;11.50;;
68680;SDS011;55836;49.858;6.756;2023-04-30T08:12:11;15.03;;;10.80;;
68680;SDS011;55836;49.858;6.756;2023-04-30T08:14:37;16.13;;;11.27;;
68680;SDS011;55836;49.858;6.756;2023-04-30T08:17:03;14.17;;;10.43;;
68680;SDS011;55836;49.858;6.756;2023-04-30T08:19:29;15.73;;;12.27;;
68680;SDS011;55836;49.858;6.756;2023-04-30T08:21:55;14.23;;;10.80;;
68680;SDS011;55836;49.858;6.756;2023-04-30T08:24:21;13.10;;;9.50;;
68680;SDS011;55836;49.858;6.756;2023-04-30T08:26:47;13.97;;;9.37;;
68680;SDS011;55836;49.858;6.756;2023-04-30T08:29:13;12.13;;;8.30;;
68680;SDS011;55836;49.858;6.756;2023-04-30T08:31:39;12.90;;;9.90;;
68680;SDS011;55836;49.858;6.756;2023-04-30T08:34:05;11.60;;;9.03;;
68680;SDS011;55836;49.858;6.756;2023-04-30T08:36:31;8.93;;;5.73;;
68680;SDS011;55836;49.858;6.756;2023-04-30T08:38:57;5.30;;;4.57;;
68680;SDS011;55836;49.858;6.756;2023-04-30T08:41:25;5.03;;;3.50;;
68680;SDS011;55836;49.858;6.756;2023-04-30T08:43:51;4.00;;;3.50;;
68680;SDS011;55836;49.858;6.756;2023-04-30T08:46:19;6.47;;;4.17;;
68680;SDS011;55836;49.858;6.756;2023-04-30T08:48:47;6.83;;;4.10;;
68680;SDS011;55836;49.858;6.756;2023-04-30T08:51:13;3.80;;;3.37;;
68680;SDS011;55836;49.858;6.756;2023-04-30T08:53:39;4.30;;;3.43;;
68680;SDS011;55836;49.858;6.756;2023-04-30T08:56:08;5.13;;;3.47;;
68680;SDS011;55836;49.858;6.756;2023-04-30T08:58:35;4.57;;;3.30;;
68680;SDS011;55836;49.858;6.756;2023-04-30T09:01:01;4.37;;;3.03;;
68680;SDS011;55836;49.858;6.756;2023-04-30T09:03:29;6.53;;;3.87;;
68680;SDS011;55836;49.858;6.756;2023-04-30T09:05:55;4.20;;;3.20;;
68680;SDS011;55836;49.858;6.756;2023-04-30T09:08:41;5.77;;;3.30;;
68680;SDS011;55836;49.858;6.756;2023-04-30T09:13:47;5.43;;;3.33;;
68680;SDS011;55836;49.858;6.756;2023-04-30T09:16:13;4.40;;;3.20;;
68680;SDS011;55836;49.858;6.756;2023-04-30T09:18:40;4.73;;;3.07;;
68680;SDS011;55836;49.858;6.756;2023-04-30T09:21:06;4.07;;;2.70;;
68680;SDS011;55836;49.858;6.756;2023-04-30T09:23:33;5.63;;;3.00;;
68680;SDS011;55836;49.858;6.756;2023-04-30T09:25:59;4.17;;;3.10;;
68680;SDS011;55836;49.858;6.756;2023-04-30T09:28:25;3.43;;;2.97;;
68680;SDS011;55836;49.858;6.756;2023-04-30T09:30:52;4.63;;;3.77;;
68680;SDS011;55836;49.858;6.756;2023-04-30T09:33:18;3.97;;;3.47;;
68680;SDS011;55836;49.858;6.756;2023-04-30T09:35:44;3.30;;;3.00;;
68680;SDS011;55836;49.858;6.756;2023-04-30T09:38:32;3.20;;;2.90;;
68680;SDS011;55836;49.858;6.756;2023-04-30T09:40:58;4.03;;;3.17;;
68680;SDS011;55836;49.858;6.756;2023-04-30T09:43:25;3.33;;;2.87;;
68680;SDS011;55836;49.858;6.756;2023-04-30T09:45:51;6.00;;;3.53;;
68680;SDS011;55836;49.858;6.756;2023-04-30T09:48:20;3.83;;;2.97;;
68680;SDS011;55836;49.858;6.756;2023-04-30T09:50:46;3.70;;;2.70;;
68680;SDS011;55836;49.858;6.756;2023-04-30T09:53:13;3.37;;;3.07;;
68680;SDS011;55836;49.858;6.756;2023-04-30T09:55:42;3.37;;;3.07;;
68680;SDS011;55836;49.858;6.756;2023-04-30T09:58:09;3.40;;;2.43;;
68680;SDS011;55836;49.858;6.756;2023-04-30T10:00:36;3.63;;;2.53;;
68680;SDS011;55836;49.858;6.756;2023-04-30T10:03:07;5.07;;;2.83;;
68680;SDS011;55836;49.858;6.756;2023-04-30T10:05:37;2.57;;;2.37;;
68680;SDS011;55836;49.858;6.756;2023-04-30T10:08:06;3.17;;;2.50;;
68680;SDS011;55836;49.858;6.756;2023-04-30T10:10:32;4.87;;;2.60;;
68680;SDS011;55836;49.858;6.756;2023-04-30T10:13:00;3.30;;;2.47;;
68680;SDS011;55836;49.858;6.756;2023-04-30T10:15:27;3.60;;;2.50;;
68680;SDS011;55836;49.858;6.756;2023-04-30T10:17:59;3.20;;;2.30;;
68680;SDS011;55836;49.858;6.756;2023-04-30T10:20:25;3.33;;;2.23;;
68680;SDS011;55836;49.858;6.756;2023-04-30T10:22:52;2.60;;;2.13;;
68680;SDS011;55836;49.858;6.756;2023-04-30T10:25:18;2.40;;;2.20;;
68680;SDS011;55836;49.858;6.756;2023-04-30T10:27:47;3.23;;;2.27;;
68680;SDS011;55836;49.858;6.756;2023-04-30T10:30:13;4.03;;;2.30;;
68680;SDS011;55836;49.858;6.756;2023-04-30T10:35:25;2.40;;;2.20;;
68680;SDS011;55836;49.858;6.756;2023-04-30T10:40:18;4.83;;;2.50;;
68680;SDS011;55836;49.858;6.756;2023-04-30T10:42:47;3.17;;;2.40;;
68680;SDS011;55836;49.858;6.756;2023-04-30T10:45:16;2.57;;;2.00;;
68680;SDS011;55836;49.858;6.756;2023-04-30T10:47:44;4.40;;;2.50;;
68680;SDS011;55836;49.858;6.756;2023-04-30T10:50:11;3.80;;;2.80;;
68680;SDS011;55836;49.858;6.756;2023-04-30T10:52:37;1.97;;;1.83;;
68680;SDS011;55836;49.858;6.756;2023-04-30T10:55:04;2.00;;;1.70;;
68680;SDS011;55836;49.858;6.756;2023-04-30T10:57:34;1.70;;;1.57;;
68680;SDS011;55836;49.858;6.756;2023-04-30T11:02:41;2.67;;;1.87;;
68680;SDS011;55836;49.858;6.756;2023-04-30T11:05:09;3.03;;;1.73;;
68680;SDS011;55836;49.858;6.756;2023-04-30T11:07:35;1.90;;;1.77;;
68680;SDS011;55836;49.858;6.756;2023-04-30T11:10:01;3.10;;;2.17;;
68680;SDS011;55836;49.858;6.756;2023-04-30T11:12:28;2.43;;;1.77;;
68680;SDS011;55836;49.858;6.756;2023-04-30T11:15:05;1.97;;;1.87;;
68680;SDS011;55836;49.858;6.756;2023-04-30T11:17:31;1.60;;;1.50;;
68680;SDS011;55836;49.858;6.756;2023-04-30T11:19:58;3.40;;;1.67;;
68680;SDS011;55836;49.858;6.756;2023-04-30T11:22:27;2.53;;;1.60;;
68680;SDS011;55836;49.858;6.756;2023-04-30T11:27:27;3.63;;;1.80;;
68680;SDS011;55836;49.858;6.756;2023-04-30T11:29:53;1.60;;;1.50;;
68680;SDS011;55836;49.858;6.756;2023-04-30T11:32:20;2.07;;;1.83;;
68680;SDS011;55836;49.858;6.756;2023-04-30T11:34:47;2.63;;;1.67;;
68680;SDS011;55836;49.858;6.756;2023-04-30T11:37:20;3.00;;;2.27;;
68680;SDS011;55836;49.858;6.756;2023-04-30T11:39:47;1.70;;;1.60;;
68680;SDS011;55836;49.858;6.756;2023-04-30T11:42:17;3.43;;;2.20;;
68680;SDS011;55836;49.858;6.756;2023-04-30T11:44:43;4.10;;;1.90;;
68680;SDS011;55836;49.858;6.756;2023-04-30T11:47:11;3.07;;;2.40;;
68680;SDS011;55836;49.858;6.756;2023-04-30T11:49:37;1.40;;;1.30;;
68680;SDS011;55836;49.858;6.756;2023-04-30T11:52:03;1.77;;;1.40;;
68680;SDS011;55836;49.858;6.756;2023-04-30T11:54:35;1.60;;;1.50;;
68680;SDS011;55836;49.858;6.756;2023-04-30T11:57:02;1.63;;;1.50;;
68680;SDS011;55836;49.858;6.756;2023-04-30T11:59:29;2.80;;;1.60;;
68680;SDS011;55836;49.858;6.756;2023-04-30T12:01:55;1.87;;;1.30;;
68680;SDS011;55836;49.858;6.756;2023-04-30T12:04:22;2.47;;;1.40;;
68680;SDS011;55836;49.858;6.756;2023-04-30T12:06:48;2.20;;;1.50;;
68680;SDS011;55836;49.858;6.756;2023-04-30T12:09:14;2.87;;;1.60;;
68680;SDS011;55836;49.858;6.756;2023-04-30T12:11:40;4.90;;;1.87;;
68680;SDS011;55836;49.858;6.756;2023-04-30T12:14:07;1.40;;;1.30;;
68680;SDS011;55836;49.858;6.756;2023-04-30T12:16:46;2.47;;;1.40;;
68680;SDS011;55836;49.858;6.756;2023-04-30T12:19:16;1.53;;;1.20;;
68680;SDS011;55836;49.858;6.756;2023-04-30T12:21:43;2.57;;;1.53;;
68680;SDS011;55836;49.858;6.756;2023-04-30T12:24:14;2.27;;;1.33;;
68680;SDS011;55836;49.858;6.756;2023-04-30T12:26:41;2.10;;;1.43;;
68680;SDS011;55836;49.858;6.756;2023-04-30T12:29:08;1.50;;;1.40;;
68680;SDS011;55836;49.858;6.756;2023-04-30T12:31:35;1.30;;;1.20;;
68680;SDS011;55836;49.858;6.756;2023-04-30T12:34:05;1.40;;;1.20;;
68680;SDS011;55836;49.858;6.756;2023-04-30T12:36:31;2.43;;;1.30;;
68680;SDS011;55836;49.858;6.756;2023-04-30T12:39:13;1.70;;;1.30;;
68680;SDS011;55836;49.858;6.756;2023-04-30T12:41:46;1.27;;;1.07;;
68680;SDS011;55836;49.858;6.756;2023-04-30T12:44:19;1.43;;;1.30;;
68680;SDS011;55836;49.858;6.756;2023-04-30T12:46:46;1.10;;;1.00;;
68680;SDS011;55836;49.858;6.756;2023-04-30T12:49:22;2.30;;;1.23;;
68680;SDS011;55836;49.858;6.756;2023-04-30T12:52:09;2.10;;;1.63;;
68680;SDS011;55836;49.858;6.756;2023-04-30T12:54:36;1.40;;;1.30;;
68680;SDS011;55836;49.858;6.756;2023-04-30T12:57:05;1.77;;;1.40;;
68680;SDS011;55836;49.858;6.756;2023-04-30T13:00:17;1.37;;;1.10;;
68680;SDS011;55836;49.858;6.756;2023-04-30T13:02:21;1.17;;;1.07;;
68680;SDS011;55836;49.858;6.756;2023-04-30T13:04:48;0.93;;;0.93;;
68680;SDS011;55836;49.858;6.756;2023-04-30T13:07:15;1.47;;;1.07;;
68680;SDS011;55836;49.858;6.756;2023-04-30T13:09:41;0.90;;;0.90;;
68680;SDS011;55836;49.858;6.756;2023-04-30T13:12:07;1.10;;;1.00;;
68680;SDS011;55836;49.858;6.756;2023-04-30T13:14:33;1.13;;;1.10;;
68680;SDS011;55836;49.858;6.756;2023-04-30T13:17:00;1.70;;;1.37;;
68680;SDS011;55836;49.858;6.756;2023-04-30T13:19:29;1.30;;;1.20;;
68680;SDS011;55836;49.858;6.756;2023-04-30T13:21:56;2.47;;;1.30;;
68680;SDS011;55836;49.858;6.756;2023-04-30T13:24:23;0.93;;;0.93;;
68680;SDS011;55836;49.858;6.756;2023-04-30T13:26:49;1.20;;;1.10;;
68680;SDS011;55836;49.858;6.756;2023-04-30T13:29:15;1.20;;;1.10;;
68680;SDS011;55836;49.858;6.756;2023-04-30T13:31:41;1.60;;;1.10;;
68680;SDS011;55836;49.858;6.756;2023-04-30T13:34:07;1.20;;;1.03;;
68680;SDS011;55836;49.858;6.756;2023-04-30T13:36:34;1.30;;;1.20;;
68680;SDS011;55836;49.858;6.756;2023-04-30T13:39:00;1.30;;;1.20;;
68680;SDS011;55836;49.858;6.756;2023-04-30T13:41:28;1.87;;;1.20;;
68680;SDS011;55836;49.858;6.756;2023-04-30T13:43:54;1.43;;;1.20;;
68680;SDS011;55836;49.858;6.756;2023-04-30T13:46:20;2.50;;;1.17;;
68680;SDS011;55836;49.858;6.756;2023-04-30T13:48:46;1.13;;;0.97;;
68680;SDS011;55836;49.858;6.756;2023-04-30T13:51:14;1.47;;;1.37;;
68680;SDS011;55836;49.858;6.756;2023-04-30T13:53:40;1.20;;;1.10;;
68680;SDS011;55836;49.858;6.756;2023-04-30T13:56:06;2.40;;;1.30;;
68680;SDS011;55836;49.858;6.756;2023-04-30T13:58:32;1.00;;;1.00;;
68680;SDS011;55836;49.858;6.756;2023-04-30T14:00:58;1.10;;;1.00;;
68680;SDS011;55836;49.858;6.756;2023-04-30T14:03:24;2.93;;;1.30;;
68680;SDS011;55836;49.858;6.756;2023-04-30T14:05:50;1.20;;;1.10;;
68680;SDS011;55836;49.858;6.756;2023-04-30T14:08:16;1.80;;;1.30;;
68680;SDS011;55836;49.858;6.756;2023-04-30T14:10:42;1.93;;;1.10;;
68680;SDS011;55836;49.858;6.756;2023-04-30T14:13:08;1.30;;;1.10;;
68680;SDS011;55836;49.858;6.756;2023-04-30T14:15:34;2.17;;;1.30;;
68680;SDS011;55836;49.858;6.756;2023-04-30T14:18:02;0.83;;;0.83;;
68680;SDS011;55836;49.858;6.756;2023-04-30T14:20:28;1.10;;;1.00;;
68680;SDS011;55836;49.858;6.756;2023-04-30T14:22:54;1.47;;;1.30;;
68680;SDS011;55836;49.858;6.756;2023-04-30T14:25:20;1.40;;;1.30;;
68680;SDS011;55836;49.858;6.756;2023-04-30T14:27:47;2.90;;;1.30;;
68680;SDS011;55836;49.858;6.756;2023-04-30T14:30:14;2.07;;;1.37;;
68680;SDS011;55836;49.858;6.756;2023-04-30T14:32:40;1.40;;;1.30;;
68680;SDS011;55836;49.858;6.756;2023-04-30T14:35:06;2.03;;;1.40;;
68680;SDS011;55836;49.858;6.756;2023-04-30T14:37:33;1.40;;;1.23;;
68680;SDS011;55836;49.858;6.756;2023-04-30T14:39:59;1.57;;;1.30;;
68680;SDS011;55836;49.858;6.756;2023-04-30T14:42:26;2.20;;;1.40;;
68680;SDS011;55836;49.858;6.756;2023-04-30T14:44:52;1.30;;;1.20;;
68680;SDS011;55836;49.858;6.756;2023-04-30T14:47:18;1.83;;;1.30;;
68680;SDS011;55836;49.858;6.756;2023-04-30T14:49:45;1.73;;;1.40;;
68680;SDS011;55836;49.858;6.756;2023-04-30T14:52:12;1.83;;;1.00;;
68680;SDS011;55836;49.858;6.756;2023-04-30T14:54:38;2.50;;;1.60;;
68680;SDS011;55836;49.858;6.756;2023-04-30T14:57:04;2.60;;;2.30;;
68680;SDS011;55836;49.858;6.756;2023-04-30T14:59:30;1.40;;;1.30;;